sensor_id;sensor_type;location;lat;lon;timestamp;P1;durP1;ratioP1;P2;durP2;ratioP2
37851;SDS011;23691;52.486;4.650;2023-07-29T00:00:56;7.07;;;1.40;;
37851;SDS011;23691;52.486;4.650;2023-07-29T00:03:21;13.02;;;1.92;;
37851;SDS011;23691;52.486;4.650;2023-07-29T00:05:47;6.30;;;1.33;;
37851;SDS011;23691;52.486;4.650;2023-07-29T00:08:15;7.03;;;1.48;;
37851;SDS011;23691;52.486;4.650;2023-07-29T00:10:41;8.30;;;1.70;;
37851;SDS011;23691;52.486;4.650;2023-07-29T00:13:06;8.20;;;1.70;;
37851;SDS011;23691;52.486;4.650;2023-07-29T00:15:32;8.27;;;1.70;;
37851;SDS011;23691;52.486;4.650;2023-07-29T00:17:57;8.82;;;1.40;;
37851;SDS011;23691;52.486;4.650;2023-07-29T00:20:23;9.35;;;1.60;;
37851;SDS011;23691;52.486;4.650;2023-07-29T00:22:48;7.90;;;1.58;;
37851;SDS011;23691;52.486;4.650;2023-07-29T00:25:19;9.57;;;1.75;;
37851;SDS011;23691;52.486;4.650;2023-07-29T00:27:45;8.88;;;1.50;;
37851;SDS011;23691;52.486;4.650;2023-07-29T00:30:11;6.13;;;1.30;;
37851;SDS011;23691;52.486;4.650;2023-07-29T00:32:36;7.95;;;1.83;;
37851;SDS011;23691;52.486;4.650;2023-07-29T00:35:02;8.35;;;1.33;;
37851;SDS011;23691;52.486;4.650;2023-07-29T00:37:28;10.20;;;1.60;;
37851;SDS011;23691;52.486;4.650;2023-07-29T00:39:55;7.13;;;1.60;;
37851;SDS011;23691;52.486;4.650;2023-07-29T00:42:20;8.05;;;1.42;;
37851;SDS011;23691;52.486;4.650;2023-07-29T00:44:45;6.45;;;1.23;;
37851;SDS011;23691;52.486;4.650;2023-07-29T00:47:11;7.28;;;1.30;;
37851;SDS011;23691;52.486;4.650;2023-07-29T00:49:40;8.43;;;1.42;;
37851;SDS011;23691;52.486;4.650;2023-07-29T00:52:05;7.15;;;1.50;;
37851;SDS011;23691;52.486;4.650;2023-07-29T00:54:31;6.60;;;1.60;;
37851;SDS011;23691;52.486;4.650;2023-07-29T00:56:56;9.02;;;1.50;;
37851;SDS011;23691;52.486;4.650;2023-07-29T00:59:24;9.80;;;1.50;;
37851;SDS011;23691;52.486;4.650;2023-07-29T01:01:50;9.68;;;1.70;;
37851;SDS011;23691;52.486;4.650;2023-07-29T01:04:16;12.82;;;2.35;;
37851;SDS011;23691;52.486;4.650;2023-07-29T01:06:44;9.50;;;1.70;;
37851;SDS011;23691;52.486;4.650;2023-07-29T01:09:22;8.00;;;1.80;;
37851;SDS011;23691;52.486;4.650;2023-07-29T01:11:58;9.95;;;1.80;;
37851;SDS011;23691;52.486;4.650;2023-07-29T01:14:34;8.38;;;1.60;;
37851;SDS011;23691;52.486;4.650;2023-07-29T01:17:06;6.97;;;1.65;;
37851;SDS011;23691;52.486;4.650;2023-07-29T01:19:42;5.30;;;1.50;;
37851;SDS011;23691;52.486;4.650;2023-07-29T01:22:16;5.88;;;1.55;;
37851;SDS011;23691;52.486;4.650;2023-07-29T01:24:44;10.27;;;1.88;;
37851;SDS011;23691;52.486;4.650;2023-07-29T01:27:09;8.90;;;2.10;;
37851;SDS011;23691;52.486;4.650;2023-07-29T01:29:35;9.73;;;1.80;;
37851;SDS011;23691;52.486;4.650;2023-07-29T01:32:02;8.05;;;1.60;;
37851;SDS011;23691;52.486;4.650;2023-07-29T01:34:35;9.40;;;1.73;;
37851;SDS011;23691;52.486;4.650;2023-07-29T01:37:22;8.25;;;1.67;;
37851;SDS011;23691;52.486;4.650;2023-07-29T01:39:52;7.68;;;1.70;;
37851;SDS011;23691;52.486;4.650;2023-07-29T01:42:21;8.35;;;1.80;;
37851;SDS011;23691;52.486;4.650;2023-07-29T01:44:47;15.43;;;2.35;;
37851;SDS011;23691;52.486;4.650;2023-07-29T01:47:13;7.45;;;1.85;;
37851;SDS011;23691;52.486;4.650;2023-07-29T01:49:38;8.02;;;1.88;;
37851;SDS011;23691;52.486;4.650;2023-07-29T01:52:04;10.65;;;1.95;;
37851;SDS011;23691;52.486;4.650;2023-07-29T01:54:29;7.88;;;1.85;;
37851;SDS011;23691;52.486;4.650;2023-07-29T01:56:54;8.63;;;1.92;;
37851;SDS011;23691;52.486;4.650;2023-07-29T01:59:22;11.15;;;1.98;;
37851;SDS011;23691;52.486;4.650;2023-07-29T02:01:47;10.23;;;1.85;;
37851;SDS011;23691;52.486;4.650;2023-07-29T02:04:14;9.45;;;1.83;;
37851;SDS011;23691;52.486;4.650;2023-07-29T02:06:39;8.23;;;1.73;;
37851;SDS011;23691;52.486;4.650;2023-07-29T02:09:04;10.82;;;1.73;;
37851;SDS011;23691;52.486;4.650;2023-07-29T02:11:30;8.55;;;1.90;;
37851;SDS011;23691;52.486;4.650;2023-07-29T02:13:56;8.98;;;1.95;;
37851;SDS011;23691;52.486;4.650;2023-07-29T02:16:21;10.15;;;2.15;;
37851;SDS011;23691;52.486;4.650;2023-07-29T02:18:50;9.35;;;1.90;;
37851;SDS011;23691;52.486;4.650;2023-07-29T02:21:16;9.88;;;2.35;;
37851;SDS011;23691;52.486;4.650;2023-07-29T02:23:41;8.90;;;1.75;;
37851;SDS011;23691;52.486;4.650;2023-07-29T02:26:07;11.13;;;2.05;;
37851;SDS011;23691;52.486;4.650;2023-07-29T02:28:32;13.20;;;2.25;;
37851;SDS011;23691;52.486;4.650;2023-07-29T02:36:33;7.47;;;1.80;;
37851;SDS011;23691;52.486;4.650;2023-07-29T02:38:59;9.70;;;1.98;;
37851;SDS011;23691;52.486;4.650;2023-07-29T02:41:24;9.18;;;1.98;;
37851;SDS011;23691;52.486;4.650;2023-07-29T02:43:50;11.80;;;2.10;;
37851;SDS011;23691;52.486;4.650;2023-07-29T02:46:16;9.10;;;1.85;;
37851;SDS011;23691;52.486;4.650;2023-07-29T02:48:42;9.98;;;2.05;;
37851;SDS011;23691;52.486;4.650;2023-07-29T02:51:09;8.32;;;2.30;;
37851;SDS011;23691;52.486;4.650;2023-07-29T02:53:34;7.07;;;1.77;;
37851;SDS011;23691;52.486;4.650;2023-07-29T02:56:01;7.97;;;1.90;;
37851;SDS011;23691;52.486;4.650;2023-07-29T02:58:28;9.60;;;2.10;;
37851;SDS011;23691;52.486;4.650;2023-07-29T03:00:53;8.93;;;2.00;;
37851;SDS011;23691;52.486;4.650;2023-07-29T03:03:19;8.57;;;2.00;;
37851;SDS011;23691;52.486;4.650;2023-07-29T03:05:44;8.98;;;1.85;;
37851;SDS011;23691;52.486;4.650;2023-07-29T03:08:10;10.88;;;2.20;;
37851;SDS011;23691;52.486;4.650;2023-07-29T03:10:35;8.10;;;2.00;;
37851;SDS011;23691;52.486;4.650;2023-07-29T03:13:01;7.35;;;1.83;;
37851;SDS011;23691;52.486;4.650;2023-07-29T03:15:27;9.20;;;2.13;;
37851;SDS011;23691;52.486;4.650;2023-07-29T03:17:52;10.70;;;1.63;;
37851;SDS011;23691;52.486;4.650;2023-07-29T03:20:18;10.23;;;1.90;;
37851;SDS011;23691;52.486;4.650;2023-07-29T03:22:44;10.23;;;2.00;;
37851;SDS011;23691;52.486;4.650;2023-07-29T03:25:10;13.57;;;2.15;;
37851;SDS011;23691;52.486;4.650;2023-07-29T03:27:35;10.38;;;2.15;;
37851;SDS011;23691;52.486;4.650;2023-07-29T03:30:05;9.25;;;1.92;;
37851;SDS011;23691;52.486;4.650;2023-07-29T03:32:31;14.98;;;2.22;;
37851;SDS011;23691;52.486;4.650;2023-07-29T03:34:56;9.85;;;1.60;;
37851;SDS011;23691;52.486;4.650;2023-07-29T03:37:22;11.32;;;2.35;;
37851;SDS011;23691;52.486;4.650;2023-07-29T03:39:47;8.88;;;1.98;;
37851;SDS011;23691;52.486;4.650;2023-07-29T03:42:15;9.25;;;1.92;;
37851;SDS011;23691;52.486;4.650;2023-07-29T03:44:41;12.32;;;2.40;;
37851;SDS011;23691;52.486;4.650;2023-07-29T03:47:08;8.73;;;2.10;;
37851;SDS011;23691;52.486;4.650;2023-07-29T03:49:34;11.65;;;2.20;;
37851;SDS011;23691;52.486;4.650;2023-07-29T03:51:59;10.13;;;1.88;;
37851;SDS011;23691;52.486;4.650;2023-07-29T03:54:25;12.57;;;2.05;;
37851;SDS011;23691;52.486;4.650;2023-07-29T03:56:50;10.20;;;2.40;;
37851;SDS011;23691;52.486;4.650;2023-07-29T03:59:18;12.15;;;2.15;;
37851;SDS011;23691;52.486;4.650;2023-07-29T04:01:43;6.97;;;1.70;;
37851;SDS011;23691;52.486;4.650;2023-07-29T04:04:11;6.45;;;1.65;;
37851;SDS011;23691;52.486;4.650;2023-07-29T04:06:39;10.82;;;1.95;;
37851;SDS011;23691;52.486;4.650;2023-07-29T04:09:04;8.18;;;1.85;;
37851;SDS011;23691;52.486;4.650;2023-07-29T04:11:29;11.65;;;2.13;;
37851;SDS011;23691;52.486;4.650;2023-07-29T04:13:55;8.80;;;1.88;;
37851;SDS011;23691;52.486;4.650;2023-07-29T04:16:20;7.38;;;1.63;;
37851;SDS011;23691;52.486;4.650;2023-07-29T04:18:45;8.98;;;2.00;;
37851;SDS011;23691;52.486;4.650;2023-07-29T04:21:11;8.98;;;2.00;;
37851;SDS011;23691;52.486;4.650;2023-07-29T04:23:36;12.80;;;2.40;;
37851;SDS011;23691;52.486;4.650;2023-07-29T04:26:02;11.95;;;2.72;;
37851;SDS011;23691;52.486;4.650;2023-07-29T04:28:27;11.30;;;2.78;;
37851;SDS011;23691;52.486;4.650;2023-07-29T04:30:55;11.95;;;2.85;;
37851;SDS011;23691;52.486;4.650;2023-07-29T04:33:21;12.15;;;2.65;;
37851;SDS011;23691;52.486;4.650;2023-07-29T04:35:49;10.13;;;2.38;;
37851;SDS011;23691;52.486;4.650;2023-07-29T04:40:39;10.33;;;2.33;;
37851;SDS011;23691;52.486;4.650;2023-07-29T04:43:05;11.80;;;2.75;;
37851;SDS011;23691;52.486;4.650;2023-07-29T04:45:30;11.68;;;2.42;;
37851;SDS011;23691;52.486;4.650;2023-07-29T04:47:56;11.57;;;2.65;;
37851;SDS011;23691;52.486;4.650;2023-07-29T04:50:23;10.07;;;2.27;;
37851;SDS011;23691;52.486;4.650;2023-07-29T04:52:48;10.77;;;2.60;;
37851;SDS011;23691;52.486;4.650;2023-07-29T04:55:14;10.52;;;2.42;;
37851;SDS011;23691;52.486;4.650;2023-07-29T04:57:39;9.95;;;2.47;;
37851;SDS011;23691;52.486;4.650;2023-07-29T05:00:05;11.40;;;2.17;;
37851;SDS011;23691;52.486;4.650;2023-07-29T05:02:31;10.60;;;1.90;;
37851;SDS011;23691;52.486;4.650;2023-07-29T05:04:56;10.20;;;1.92;;
37851;SDS011;23691;52.486;4.650;2023-07-29T05:07:24;9.05;;;2.10;;
37851;SDS011;23691;52.486;4.650;2023-07-29T05:09:50;9.77;;;2.30;;
37851;SDS011;23691;52.486;4.650;2023-07-29T05:12:15;13.07;;;2.67;;
37851;SDS011;23691;52.486;4.650;2023-07-29T05:14:41;9.70;;;2.45;;
37851;SDS011;23691;52.486;4.650;2023-07-29T05:17:09;10.15;;;2.72;;
37851;SDS011;23691;52.486;4.650;2023-07-29T05:19:34;11.85;;;2.88;;
37851;SDS011;23691;52.486;4.650;2023-07-29T05:22:00;12.30;;;2.38;;
37851;SDS011;23691;52.486;4.650;2023-07-29T05:24:25;12.20;;;2.72;;
37851;SDS011;23691;52.486;4.650;2023-07-29T05:26:51;13.93;;;3.10;;
37851;SDS011;23691;52.486;4.650;2023-07-29T05:29:16;14.52;;;3.08;;
37851;SDS011;23691;52.486;4.650;2023-07-29T05:31:41;12.13;;;2.70;;
37851;SDS011;23691;52.486;4.650;2023-07-29T05:34:07;15.80;;;2.70;;
37851;SDS011;23691;52.486;4.650;2023-07-29T05:36:32;10.23;;;2.08;;
37851;SDS011;23691;52.486;4.650;2023-07-29T05:39:01;11.45;;;2.10;;
37851;SDS011;23691;52.486;4.650;2023-07-29T05:41:26;10.82;;;2.05;;
37851;SDS011;23691;52.486;4.650;2023-07-29T05:43:54;11.65;;;2.38;;
37851;SDS011;23691;52.486;4.650;2023-07-29T05:46:19;10.57;;;2.25;;
37851;SDS011;23691;52.486;4.650;2023-07-29T05:48:48;11.10;;;2.35;;
37851;SDS011;23691;52.486;4.650;2023-07-29T05:51:13;11.50;;;1.80;;
37851;SDS011;23691;52.486;4.650;2023-07-29T05:53:38;9.23;;;2.10;;
37851;SDS011;23691;52.486;4.650;2023-07-29T05:56:04;9.95;;;2.20;;
37851;SDS011;23691;52.486;4.650;2023-07-29T05:58:29;12.80;;;2.42;;
37851;SDS011;23691;52.486;4.650;2023-07-29T06:00:56;12.15;;;2.10;;
37851;SDS011;23691;52.486;4.650;2023-07-29T06:03:22;10.73;;;2.25;;
37851;SDS011;23691;52.486;4.650;2023-07-29T06:05:48;10.13;;;2.47;;
37851;SDS011;23691;52.486;4.650;2023-07-29T06:08:14;11.55;;;2.17;;
37851;SDS011;23691;52.486;4.650;2023-07-29T06:10:39;10.25;;;2.13;;
37851;SDS011;23691;52.486;4.650;2023-07-29T06:13:05;9.55;;;2.03;;
37851;SDS011;23691;52.486;4.650;2023-07-29T06:15:31;9.23;;;1.90;;
37851;SDS011;23691;52.486;4.650;2023-07-29T06:17:56;13.60;;;2.50;;
37851;SDS011;23691;52.486;4.650;2023-07-29T06:20:22;14.45;;;2.38;;
37851;SDS011;23691;52.486;4.650;2023-07-29T06:22:47;13.45;;;2.50;;
37851;SDS011;23691;52.486;4.650;2023-07-29T06:25:12;8.93;;;1.73;;
37851;SDS011;23691;52.486;4.650;2023-07-29T06:27:38;12.63;;;2.05;;
37851;SDS011;23691;52.486;4.650;2023-07-29T06:30:05;7.60;;;1.67;;
37851;SDS011;23691;52.486;4.650;2023-07-29T06:32:31;12.50;;;2.33;;
37851;SDS011;23691;52.486;4.650;2023-07-29T06:34:57;9.63;;;2.15;;
37851;SDS011;23691;52.486;4.650;2023-07-29T06:37:22;12.68;;;2.50;;
37851;SDS011;23691;52.486;4.650;2023-07-29T06:39:47;8.52;;;2.00;;
37851;SDS011;23691;52.486;4.650;2023-07-29T06:42:16;10.50;;;2.30;;
37851;SDS011;23691;52.486;4.650;2023-07-29T06:44:41;13.55;;;2.90;;
37851;SDS011;23691;52.486;4.650;2023-07-29T06:47:06;10.68;;;2.13;;
37851;SDS011;23691;52.486;4.650;2023-07-29T06:49:32;8.95;;;1.95;;
37851;SDS011;23691;52.486;4.650;2023-07-29T06:51:57;11.27;;;1.92;;
37851;SDS011;23691;52.486;4.650;2023-07-29T06:54:26;12.95;;;2.20;;
37851;SDS011;23691;52.486;4.650;2023-07-29T06:56:51;12.32;;;2.50;;
37851;SDS011;23691;52.486;4.650;2023-07-29T06:59:17;10.10;;;2.13;;
37851;SDS011;23691;52.486;4.650;2023-07-29T07:01:42;9.82;;;1.90;;
37851;SDS011;23691;52.486;4.650;2023-07-29T07:04:08;11.10;;;1.70;;
37851;SDS011;23691;52.486;4.650;2023-07-29T07:06:33;8.00;;;1.92;;
37851;SDS011;23691;52.486;4.650;2023-07-29T07:08:59;12.32;;;2.22;;
37851;SDS011;23691;52.486;4.650;2023-07-29T07:11:24;10.32;;;1.73;;
37851;SDS011;23691;52.486;4.650;2023-07-29T07:13:50;9.77;;;2.15;;
37851;SDS011;23691;52.486;4.650;2023-07-29T07:16:15;10.32;;;2.10;;
37851;SDS011;23691;52.486;4.650;2023-07-29T07:18:41;12.77;;;2.25;;
37851;SDS011;23691;52.486;4.650;2023-07-29T07:23:34;10.00;;;2.03;;
37851;SDS011;23691;52.486;4.650;2023-07-29T07:25:59;9.57;;;2.15;;
37851;SDS011;23691;52.486;4.650;2023-07-29T07:28:24;6.00;;;1.42;;
37851;SDS011;23691;52.486;4.650;2023-07-29T07:30:51;8.13;;;2.13;;
37851;SDS011;23691;52.486;4.650;2023-07-29T07:33:17;9.25;;;1.77;;
37851;SDS011;23691;52.486;4.650;2023-07-29T07:35:42;10.98;;;2.13;;
37851;SDS011;23691;52.486;4.650;2023-07-29T07:38:08;9.18;;;1.77;;
37851;SDS011;23691;52.486;4.650;2023-07-29T07:40:35;12.40;;;2.10;;
37851;SDS011;23691;52.486;4.650;2023-07-29T07:43:00;11.43;;;2.05;;
37851;SDS011;23691;52.486;4.650;2023-07-29T07:45:26;8.32;;;1.60;;
37851;SDS011;23691;52.486;4.650;2023-07-29T07:47:55;10.35;;;1.85;;
37851;SDS011;23691;52.486;4.650;2023-07-29T07:50:21;11.88;;;2.17;;
37851;SDS011;23691;52.486;4.650;2023-07-29T07:52:46;12.02;;;2.10;;
37851;SDS011;23691;52.486;4.650;2023-07-29T07:55:12;10.68;;;1.95;;
37851;SDS011;23691;52.486;4.650;2023-07-29T07:57:37;10.18;;;1.60;;
37851;SDS011;23691;52.486;4.650;2023-07-29T08:00:03;13.52;;;2.58;;
37851;SDS011;23691;52.486;4.650;2023-07-29T08:02:30;11.50;;;2.33;;
37851;SDS011;23691;52.486;4.650;2023-07-29T08:04:55;11.93;;;2.33;;
37851;SDS011;23691;52.486;4.650;2023-07-29T08:07:21;14.45;;;2.40;;
37851;SDS011;23691;52.486;4.650;2023-07-29T08:09:46;12.82;;;2.80;;
37851;SDS011;23691;52.486;4.650;2023-07-29T08:12:12;10.10;;;2.53;;
37851;SDS011;23691;52.486;4.650;2023-07-29T08:14:37;12.55;;;2.63;;
37851;SDS011;23691;52.486;4.650;2023-07-29T08:17:04;11.10;;;2.40;;
37851;SDS011;23691;52.486;4.650;2023-07-29T08:19:32;11.85;;;3.05;;
37851;SDS011;23691;52.486;4.650;2023-07-29T08:21:57;12.27;;;2.40;;
37851;SDS011;23691;52.486;4.650;2023-07-29T08:24:23;10.40;;;2.17;;
37851;SDS011;23691;52.486;4.650;2023-07-29T08:26:48;8.82;;;2.13;;
37851;SDS011;23691;52.486;4.650;2023-07-29T08:29:14;10.93;;;2.33;;
37851;SDS011;23691;52.486;4.650;2023-07-29T08:31:39;13.32;;;2.80;;
37851;SDS011;23691;52.486;4.650;2023-07-29T08:34:05;12.30;;;3.13;;
37851;SDS011;23691;52.486;4.650;2023-07-29T08:36:30;17.40;;;3.10;;
37851;SDS011;23691;52.486;4.650;2023-07-29T08:38:55;10.95;;;2.28;;
37851;SDS011;23691;52.486;4.650;2023-07-29T08:41:25;14.65;;;2.38;;
37851;SDS011;23691;52.486;4.650;2023-07-29T08:44:06;14.68;;;2.72;;
37851;SDS011;23691;52.486;4.650;2023-07-29T08:46:37;11.63;;;2.35;;
37851;SDS011;23691;52.486;4.650;2023-07-29T08:49:04;10.35;;;2.55;;
37851;SDS011;23691;52.486;4.650;2023-07-29T08:51:31;17.58;;;2.95;;
37851;SDS011;23691;52.486;4.650;2023-07-29T08:53:57;10.52;;;2.47;;
37851;SDS011;23691;52.486;4.650;2023-07-29T08:56:24;15.55;;;3.10;;
37851;SDS011;23691;52.486;4.650;2023-07-29T08:58:50;11.55;;;2.55;;
37851;SDS011;23691;52.486;4.650;2023-07-29T09:01:16;12.35;;;2.17;;
37851;SDS011;23691;52.486;4.650;2023-07-29T09:03:42;11.90;;;2.70;;
37851;SDS011;23691;52.486;4.650;2023-07-29T09:06:07;13.30;;;2.85;;
37851;SDS011;23691;52.486;4.650;2023-07-29T09:08:33;15.70;;;2.30;;
37851;SDS011;23691;52.486;4.650;2023-07-29T09:10:59;9.07;;;2.08;;
37851;SDS011;23691;52.486;4.650;2023-07-29T09:13:24;11.00;;;2.85;;
37851;SDS011;23691;52.486;4.650;2023-07-29T09:15:54;12.93;;;3.10;;
37851;SDS011;23691;52.486;4.650;2023-07-29T09:18:23;11.38;;;2.67;;
37851;SDS011;23691;52.486;4.650;2023-07-29T09:20:52;16.63;;;2.60;;
37851;SDS011;23691;52.486;4.650;2023-07-29T09:23:18;13.07;;;2.67;;
37851;SDS011;23691;52.486;4.650;2023-07-29T09:25:46;12.30;;;2.58;;
37851;SDS011;23691;52.486;4.650;2023-07-29T09:28:13;12.75;;;3.08;;
37851;SDS011;23691;52.486;4.650;2023-07-29T09:30:40;9.73;;;2.53;;
37851;SDS011;23691;52.486;4.650;2023-07-29T09:33:07;10.43;;;2.22;;
37851;SDS011;23691;52.486;4.650;2023-07-29T09:35:34;13.25;;;2.45;;
37851;SDS011;23691;52.486;4.650;2023-07-29T09:38:04;13.03;;;2.67;;
37851;SDS011;23691;52.486;4.650;2023-07-29T09:40:38;11.02;;;2.50;;
37851;SDS011;23691;52.486;4.650;2023-07-29T09:43:12;9.80;;;2.17;;
37851;SDS011;23691;52.486;4.650;2023-07-29T09:45:42;12.73;;;2.47;;
37851;SDS011;23691;52.486;4.650;2023-07-29T09:48:07;9.73;;;2.15;;
37851;SDS011;23691;52.486;4.650;2023-07-29T09:50:35;9.02;;;2.05;;
37851;SDS011;23691;52.486;4.650;2023-07-29T09:53:01;9.43;;;2.40;;
37851;SDS011;23691;52.486;4.650;2023-07-29T09:55:28;10.73;;;2.30;;
37851;SDS011;23691;52.486;4.650;2023-07-29T09:57:58;7.35;;;1.70;;
37851;SDS011;23691;52.486;4.650;2023-07-29T10:00:30;11.43;;;1.98;;
37851;SDS011;23691;52.486;4.650;2023-07-29T10:02:57;9.50;;;2.10;;
37851;SDS011;23691;52.486;4.650;2023-07-29T10:05:26;7.47;;;1.95;;
37851;SDS011;23691;52.486;4.650;2023-07-29T10:07:55;8.70;;;1.95;;
37851;SDS011;23691;52.486;4.650;2023-07-29T10:10:22;7.40;;;2.00;;
37851;SDS011;23691;52.486;4.650;2023-07-29T10:12:48;9.60;;;2.40;;
37851;SDS011;23691;52.486;4.650;2023-07-29T10:15:14;11.68;;;2.50;;
37851;SDS011;23691;52.486;4.650;2023-07-29T10:17:40;9.98;;;2.30;;
37851;SDS011;23691;52.486;4.650;2023-07-29T10:20:07;11.65;;;2.30;;
37851;SDS011;23691;52.486;4.650;2023-07-29T10:22:38;12.15;;;2.10;;
37851;SDS011;23691;52.486;4.650;2023-07-29T10:25:15;13.13;;;2.67;;
37851;SDS011;23691;52.486;4.650;2023-07-29T10:27:48;10.73;;;2.17;;
37851;SDS011;23691;52.486;4.650;2023-07-29T10:30:17;10.82;;;1.90;;
37851;SDS011;23691;52.486;4.650;2023-07-29T10:32:43;12.65;;;2.33;;
37851;SDS011;23691;52.486;4.650;2023-07-29T10:35:10;9.38;;;2.08;;
37851;SDS011;23691;52.486;4.650;2023-07-29T10:37:36;15.52;;;2.50;;
37851;SDS011;23691;52.486;4.650;2023-07-29T10:40:06;10.77;;;2.17;;
37851;SDS011;23691;52.486;4.650;2023-07-29T10:42:32;10.90;;;2.10;;
37851;SDS011;23691;52.486;4.650;2023-07-29T10:44:57;9.88;;;2.00;;
37851;SDS011;23691;52.486;4.650;2023-07-29T10:47:26;12.02;;;2.33;;
37851;SDS011;23691;52.486;4.650;2023-07-29T10:49:57;9.50;;;1.80;;
37851;SDS011;23691;52.486;4.650;2023-07-29T10:55:01;8.77;;;1.60;;
37851;SDS011;23691;52.486;4.650;2023-07-29T10:57:36;6.68;;;1.50;;
37851;SDS011;23691;52.486;4.650;2023-07-29T11:00:03;9.52;;;1.50;;
37851;SDS011;23691;52.486;4.650;2023-07-29T11:35:29;7.85;;;1.52;;
37851;SDS011;23691;52.486;4.650;2023-07-29T11:38:25;8.70;;;1.55;;
37851;SDS011;23691;52.486;4.650;2023-07-29T11:40:59;8.15;;;1.70;;
37851;SDS011;23691;52.486;4.650;2023-07-29T11:43:36;7.10;;;1.30;;
37851;SDS011;23691;52.486;4.650;2023-07-29T11:46:15;4.25;;;1.15;;
37851;SDS011;23691;52.486;4.650;2023-07-29T11:49:00;6.40;;;1.42;;
37851;SDS011;23691;52.486;4.650;2023-07-29T12:46:09;6.93;;;1.10;;
37851;SDS011;23691;52.486;4.650;2023-07-29T12:48:47;7.85;;;1.48;;
37851;SDS011;23691;52.486;4.650;2023-07-29T12:51:22;4.72;;;0.98;;
37851;SDS011;23691;52.486;4.650;2023-07-29T12:53:56;6.53;;;1.15;;
37851;SDS011;23691;52.486;4.650;2023-07-29T13:32:09;4.57;;;0.80;;
37851;SDS011;23691;52.486;4.650;2023-07-29T13:35:18;6.00;;;0.90;;
37851;SDS011;23691;52.486;4.650;2023-07-29T13:37:45;6.03;;;0.90;;
37851;SDS011;23691;52.486;4.650;2023-07-29T13:40:16;5.22;;;1.00;;
37851;SDS011;23691;52.486;4.650;2023-07-29T13:42:42;5.35;;;0.90;;
37851;SDS011;23691;52.486;4.650;2023-07-29T13:45:13;2.85;;;0.73;;
37851;SDS011;23691;52.486;4.650;2023-07-29T13:47:41;2.90;;;0.70;;
37851;SDS011;23691;52.486;4.650;2023-07-29T13:50:10;5.60;;;0.88;;
37851;SDS011;23691;52.486;4.650;2023-07-29T13:52:36;6.28;;;1.40;;
37851;SDS011;23691;52.486;4.650;2023-07-29T13:55:05;7.30;;;1.20;;
37851;SDS011;23691;52.486;4.650;2023-07-29T14:00:19;6.00;;;1.30;;
37851;SDS011;23691;52.486;4.650;2023-07-29T14:08:42;7.47;;;1.30;;
37851;SDS011;23691;52.486;4.650;2023-07-29T14:13:43;8.35;;;2.20;;
37851;SDS011;23691;52.486;4.650;2023-07-29T14:16:12;9.63;;;1.65;;
37851;SDS011;23691;52.486;4.650;2023-07-29T14:18:37;7.97;;;1.20;;
37851;SDS011;23691;52.486;4.650;2023-07-29T14:21:03;5.05;;;1.00;;
37851;SDS011;23691;52.486;4.650;2023-07-29T14:26:04;7.55;;;1.15;;
37851;SDS011;23691;52.486;4.650;2023-07-29T14:33:42;6.72;;;1.13;;
37851;SDS011;23691;52.486;4.650;2023-07-29T14:38:35;5.90;;;1.17;;
37851;SDS011;23691;52.486;4.650;2023-07-29T14:41:03;6.43;;;1.10;;
37851;SDS011;23691;52.486;4.650;2023-07-29T14:43:30;8.02;;;1.67;;
37851;SDS011;23691;52.486;4.650;2023-07-29T14:45:56;9.38;;;1.50;;
37851;SDS011;23691;52.486;4.650;2023-07-29T14:48:25;6.43;;;1.33;;
37851;SDS011;23691;52.486;4.650;2023-07-29T14:50:51;7.20;;;1.25;;
37851;SDS011;23691;52.486;4.650;2023-07-29T14:53:19;4.30;;;1.25;;
37851;SDS011;23691;52.486;4.650;2023-07-29T14:55:51;5.63;;;1.50;;
37851;SDS011;23691;52.486;4.650;2023-07-29T14:58:19;5.22;;;1.27;;
37851;SDS011;23691;52.486;4.650;2023-07-29T15:00:45;8.50;;;1.45;;
37851;SDS011;23691;52.486;4.650;2023-07-29T15:03:13;9.75;;;1.40;;
37851;SDS011;23691;52.486;4.650;2023-07-29T15:05:38;5.53;;;1.20;;
37851;SDS011;23691;52.486;4.650;2023-07-29T15:08:05;7.88;;;1.70;;
37851;SDS011;23691;52.486;4.650;2023-07-29T15:10:31;9.48;;;2.20;;
37851;SDS011;23691;52.486;4.650;2023-07-29T15:13:04;7.18;;;1.33;;
37851;SDS011;23691;52.486;4.650;2023-07-29T15:15:29;8.63;;;1.90;;
37851;SDS011;23691;52.486;4.650;2023-07-29T15:18:00;9.20;;;1.63;;
37851;SDS011;23691;52.486;4.650;2023-07-29T15:20:33;6.32;;;1.70;;
37851;SDS011;23691;52.486;4.650;2023-07-29T15:23:02;10.13;;;1.80;;
37851;SDS011;23691;52.486;4.650;2023-07-29T15:25:32;7.95;;;1.75;;
37851;SDS011;23691;52.486;4.650;2023-07-29T15:28:14;8.68;;;2.15;;
37851;SDS011;23691;52.486;4.650;2023-07-29T16:38:48;9.65;;;2.08;;
37851;SDS011;23691;52.486;4.650;2023-07-29T16:41:13;8.60;;;1.85;;
37851;SDS011;23691;52.486;4.650;2023-07-29T16:43:39;10.18;;;2.17;;
37851;SDS011;23691;52.486;4.650;2023-07-29T16:46:04;10.98;;;2.10;;
37851;SDS011;23691;52.486;4.650;2023-07-29T16:48:30;9.40;;;2.38;;
37851;SDS011;23691;52.486;4.650;2023-07-29T16:50:55;11.15;;;2.22;;
37851;SDS011;23691;52.486;4.650;2023-07-29T16:53:20;9.85;;;2.05;;
37851;SDS011;23691;52.486;4.650;2023-07-29T16:56:04;9.50;;;2.05;;
37851;SDS011;23691;52.486;4.650;2023-07-29T16:58:35;11.93;;;2.40;;
37851;SDS011;23691;52.486;4.650;2023-07-29T17:01:03;13.77;;;2.28;;
37851;SDS011;23691;52.486;4.650;2023-07-29T17:03:29;11.05;;;1.98;;
37851;SDS011;23691;52.486;4.650;2023-07-29T17:06:00;10.50;;;2.22;;
37851;SDS011;23691;52.486;4.650;2023-07-29T17:08:26;10.30;;;2.17;;
37851;SDS011;23691;52.486;4.650;2023-07-29T17:10:54;15.52;;;2.78;;
37851;SDS011;23691;52.486;4.650;2023-07-29T17:13:23;10.75;;;2.28;;
37851;SDS011;23691;52.486;4.650;2023-07-29T17:15:48;12.23;;;2.72;;
37851;SDS011;23691;52.486;4.650;2023-07-29T17:18:14;14.50;;;2.50;;
37851;SDS011;23691;52.486;4.650;2023-07-29T17:20:42;11.27;;;2.55;;
37851;SDS011;23691;52.486;4.650;2023-07-29T17:23:19;13.23;;;2.50;;
37851;SDS011;23691;52.486;4.650;2023-07-29T17:26:09;14.93;;;3.15;;
37851;SDS011;23691;52.486;4.650;2023-07-29T17:29:20;13.63;;;2.95;;
37851;SDS011;23691;52.486;4.650;2023-07-29T17:32:49;16.17;;;2.92;;
37851;SDS011;23691;52.486;4.650;2023-07-29T17:41:20;17.33;;;3.23;;
37851;SDS011;23691;52.486;4.650;2023-07-29T17:44:07;16.85;;;3.00;;
37851;SDS011;23691;52.486;4.650;2023-07-29T17:46:52;15.00;;;3.10;;
37851;SDS011;23691;52.486;4.650;2023-07-29T17:50:00;18.92;;;3.42;;
37851;SDS011;23691;52.486;4.650;2023-07-29T17:53:28;19.67;;;3.53;;
37851;SDS011;23691;52.486;4.650;2023-07-29T17:58:37;17.77;;;2.78;;
37851;SDS011;23691;52.486;4.650;2023-07-29T18:01:13;17.25;;;3.08;;
37851;SDS011;23691;52.486;4.650;2023-07-29T18:03:48;26.50;;;4.30;;
37851;SDS011;23691;52.486;4.650;2023-07-29T18:06:14;18.77;;;3.22;;
37851;SDS011;23691;52.486;4.650;2023-07-29T18:08:43;19.40;;;3.50;;
37851;SDS011;23691;52.486;4.650;2023-07-29T18:11:08;19.80;;;3.78;;
37851;SDS011;23691;52.486;4.650;2023-07-29T18:13:44;15.05;;;3.22;;
37851;SDS011;23691;52.486;4.650;2023-07-29T18:16:09;22.10;;;3.92;;
37851;SDS011;23691;52.486;4.650;2023-07-29T18:18:40;18.45;;;3.28;;
37851;SDS011;23691;52.486;4.650;2023-07-29T18:21:13;17.55;;;3.42;;
37851;SDS011;23691;52.486;4.650;2023-07-29T18:23:39;22.35;;;4.03;;
37851;SDS011;23691;52.486;4.650;2023-07-29T18:26:07;17.17;;;3.38;;
37851;SDS011;23691;52.486;4.650;2023-07-29T18:28:35;22.05;;;3.65;;
37851;SDS011;23691;52.486;4.650;2023-07-29T18:31:01;18.00;;;3.53;;
37851;SDS011;23691;52.486;4.650;2023-07-29T18:33:27;22.75;;;3.90;;
37851;SDS011;23691;52.486;4.650;2023-07-29T18:35:52;23.85;;;3.72;;
37851;SDS011;23691;52.486;4.650;2023-07-29T18:38:17;25.95;;;3.47;;
37851;SDS011;23691;52.486;4.650;2023-07-29T18:40:43;18.95;;;3.28;;